sensor_id;sensor_type;location;lat;lon;timestamp;P1;durP1;ratioP1;P2;durP2;ratioP2
27428;SDS011;14881;48.092;11.574;2023-05-10T00:01:44;2.20;;;2.00;;
27428;SDS011;14881;48.092;11.574;2023-05-10T00:04:10;3.83;;;2.33;;
27428;SDS011;14881;48.092;11.574;2023-05-10T00:06:37;6.18;;;2.33;;
27428;SDS011;14881;48.092;11.574;2023-05-10T00:09:03;2.70;;;2.30;;
27428;SDS011;14881;48.092;11.574;2023-05-10T00:11:30;2.20;;;2.00;;
27428;SDS011;14881;48.092;11.574;2023-05-10T00:13:56;2.60;;;2.35;;
27428;SDS011;14881;48.092;11.574;2023-05-10T00:16:22;4.57;;;2.10;;
27428;SDS011;14881;48.092;11.574;2023-05-10T00:18:49;2.78;;;2.47;;
27428;SDS011;14881;48.092;11.574;2023-05-10T00:21:15;2.20;;;2.00;;
27428;SDS011;14881;48.092;11.574;2023-05-10T00:23:42;2.33;;;1.98;;
27428;SDS011;14881;48.092;11.574;2023-05-10T00:26:08;3.22;;;1.90;;
27428;SDS011;14881;48.092;11.574;2023-05-10T00:28:35;2.95;;;1.77;;
27428;SDS011;14881;48.092;11.574;2023-05-10T00:31:01;4.03;;;1.98;;
27428;SDS011;14881;48.092;11.574;2023-05-10T00:33:27;1.80;;;1.70;;
27428;SDS011;14881;48.092;11.574;2023-05-10T00:35:54;2.67;;;1.83;;
27428;SDS011;14881;48.092;11.574;2023-05-10T00:38:20;2.22;;;1.70;;
27428;SDS011;14881;48.092;11.574;2023-05-10T00:40:47;2.13;;;1.42;;
27428;SDS011;14881;48.092;11.574;2023-05-10T00:43:15;1.60;;;1.48;;
27428;SDS011;14881;48.092;11.574;2023-05-10T00:45:42;2.30;;;1.70;;
27428;SDS011;14881;48.092;11.574;2023-05-10T00:48:09;3.17;;;1.65;;
27428;SDS011;14881;48.092;11.574;2023-05-10T00:50:35;1.83;;;1.65;;
27428;SDS011;14881;48.092;11.574;2023-05-10T00:53:01;2.08;;;1.88;;
27428;SDS011;14881;48.092;11.574;2023-05-10T00:55:28;2.55;;;1.70;;
27428;SDS011;14881;48.092;11.574;2023-05-10T00:57:56;3.67;;;1.50;;
27428;SDS011;14881;48.092;11.574;2023-05-10T01:00:23;1.90;;;1.80;;
27428;SDS011;14881;48.092;11.574;2023-05-10T01:02:49;2.42;;;1.80;;
27428;SDS011;14881;48.092;11.574;2023-05-10T01:05:16;2.47;;;1.98;;
27428;SDS011;14881;48.092;11.574;2023-05-10T01:07:43;1.75;;;1.65;;
27428;SDS011;14881;48.092;11.574;2023-05-10T01:10:10;1.92;;;1.70;;
27428;SDS011;14881;48.092;11.574;2023-05-10T01:12:38;1.67;;;1.58;;
27428;SDS011;14881;48.092;11.574;2023-05-10T01:15:07;1.50;;;1.40;;
27428;SDS011;14881;48.092;11.574;2023-05-10T01:17:36;1.95;;;1.60;;
27428;SDS011;14881;48.092;11.574;2023-05-10T01:20:05;2.78;;;1.40;;
27428;SDS011;14881;48.092;11.574;2023-05-10T01:22:43;1.48;;;1.38;;
27428;SDS011;14881;48.092;11.574;2023-05-10T01:25:32;1.88;;;1.45;;
27428;SDS011;14881;48.092;11.574;2023-05-10T01:28:21;1.35;;;1.30;;
27428;SDS011;14881;48.092;11.574;2023-05-10T01:31:30;2.72;;;1.67;;
27428;SDS011;14881;48.092;11.574;2023-05-10T01:34:07;2.80;;;1.55;;
27428;SDS011;14881;48.092;11.574;2023-05-10T01:36:39;2.38;;;1.50;;
27428;SDS011;14881;48.092;11.574;2023-05-10T01:39:11;1.77;;;1.20;;
27428;SDS011;14881;48.092;11.574;2023-05-10T01:41:44;2.75;;;1.60;;
27428;SDS011;14881;48.092;11.574;2023-05-10T01:44:18;3.15;;;1.35;;
27428;SDS011;14881;48.092;11.574;2023-05-10T01:46:52;1.60;;;1.48;;
27428;SDS011;14881;48.092;11.574;2023-05-10T01:49:25;1.88;;;1.35;;
27428;SDS011;14881;48.092;11.574;2023-05-10T01:51:57;1.38;;;1.27;;
27428;SDS011;14881;48.092;11.574;2023-05-10T01:54:26;2.30;;;1.85;;
27428;SDS011;14881;48.092;11.574;2023-05-10T01:56:55;2.90;;;1.63;;
27428;SDS011;14881;48.092;11.574;2023-05-10T01:59:27;2.13;;;1.35;;
27428;SDS011;14881;48.092;11.574;2023-05-10T02:02:01;2.45;;;1.60;;
27428;SDS011;14881;48.092;11.574;2023-05-10T02:04:30;2.85;;;1.40;;
27428;SDS011;14881;48.092;11.574;2023-05-10T02:06:58;1.58;;;1.30;;
27428;SDS011;14881;48.092;11.574;2023-05-10T02:09:25;2.53;;;1.50;;
27428;SDS011;14881;48.092;11.574;2023-05-10T02:11:54;3.75;;;1.50;;
27428;SDS011;14881;48.092;11.574;2023-05-10T02:14:23;3.22;;;1.50;;
27428;SDS011;14881;48.092;11.574;2023-05-10T02:16:51;2.38;;;1.58;;
27428;SDS011;14881;48.092;11.574;2023-05-10T02:19:21;2.03;;;1.40;;
27428;SDS011;14881;48.092;11.574;2023-05-10T02:21:50;1.45;;;1.35;;
27428;SDS011;14881;48.092;11.574;2023-05-10T02:24:17;1.30;;;1.20;;
27428;SDS011;14881;48.092;11.574;2023-05-10T02:26:46;1.60;;;1.30;;
27428;SDS011;14881;48.092;11.574;2023-05-10T02:29:15;1.42;;;1.33;;
27428;SDS011;14881;48.092;11.574;2023-05-10T02:31:43;1.63;;;1.52;;
27428;SDS011;14881;48.092;11.574;2023-05-10T02:34:11;2.13;;;1.30;;
27428;SDS011;14881;48.092;11.574;2023-05-10T02:36:38;1.95;;;1.30;;
27428;SDS011;14881;48.092;11.574;2023-05-10T02:39:07;2.42;;;1.30;;
27428;SDS011;14881;48.092;11.574;2023-05-10T02:41:38;2.85;;;1.33;;
27428;SDS011;14881;48.092;11.574;2023-05-10T02:44:06;2.15;;;1.50;;
27428;SDS011;14881;48.092;11.574;2023-05-10T02:46:35;1.17;;;1.08;;
27428;SDS011;14881;48.092;11.574;2023-05-10T02:49:02;2.90;;;1.50;;
27428;SDS011;14881;48.092;11.574;2023-05-10T02:51:30;1.20;;;1.10;;
27428;SDS011;14881;48.092;11.574;2023-05-10T02:54:00;2.08;;;1.33;;
27428;SDS011;14881;48.092;11.574;2023-05-10T02:56:34;1.08;;;1.08;;
27428;SDS011;14881;48.092;11.574;2023-05-10T02:59:06;2.88;;;1.40;;
27428;SDS011;14881;48.092;11.574;2023-05-10T03:01:34;1.85;;;1.23;;
27428;SDS011;14881;48.092;11.574;2023-05-10T03:04:00;1.75;;;1.20;;
27428;SDS011;14881;48.092;11.574;2023-05-10T03:06:26;1.40;;;1.30;;
27428;SDS011;14881;48.092;11.574;2023-05-10T03:08:54;1.45;;;1.30;;
27428;SDS011;14881;48.092;11.574;2023-05-10T03:11:25;1.92;;;0.93;;
27428;SDS011;14881;48.092;11.574;2023-05-10T03:14:02;1.00;;;1.00;;
27428;SDS011;14881;48.092;11.574;2023-05-10T03:16:45;1.88;;;1.15;;
27428;SDS011;14881;48.092;11.574;2023-05-10T03:19:16;1.10;;;1.10;;
27428;SDS011;14881;48.092;11.574;2023-05-10T03:21:49;0.95;;;0.95;;
27428;SDS011;14881;48.092;11.574;2023-05-10T03:24:18;1.45;;;1.35;;
27428;SDS011;14881;48.092;11.574;2023-05-10T03:26:47;2.22;;;1.08;;
27428;SDS011;14881;48.092;11.574;2023-05-10T03:29:19;1.30;;;0.98;;
27428;SDS011;14881;48.092;11.574;2023-05-10T03:31:47;1.10;;;1.00;;
27428;SDS011;14881;48.092;11.574;2023-05-10T03:34:14;2.30;;;1.20;;
27428;SDS011;14881;48.092;11.574;2023-05-10T03:36:40;0.88;;;0.88;;
27428;SDS011;14881;48.092;11.574;2023-05-10T03:39:06;1.73;;;1.00;;
27428;SDS011;14881;48.092;11.574;2023-05-10T03:41:33;1.40;;;1.30;;
27428;SDS011;14881;48.092;11.574;2023-05-10T03:43:59;1.33;;;1.23;;
27428;SDS011;14881;48.092;11.574;2023-05-10T03:46:26;1.00;;;1.00;;
27428;SDS011;14881;48.092;11.574;2023-05-10T03:48:52;2.20;;;0.90;;
27428;SDS011;14881;48.092;11.574;2023-05-10T03:51:19;1.10;;;0.80;;
27428;SDS011;14881;48.092;11.574;2023-05-10T03:53:45;2.33;;;1.20;;
27428;SDS011;14881;48.092;11.574;2023-05-10T03:56:12;5.00;;;1.00;;
27428;SDS011;14881;48.092;11.574;2023-05-10T03:58:38;1.08;;;0.82;;
27428;SDS011;14881;48.092;11.574;2023-05-10T04:01:04;0.90;;;0.90;;
27428;SDS011;14881;48.092;11.574;2023-05-10T04:03:31;1.45;;;1.00;;
27428;SDS011;14881;48.092;11.574;2023-05-10T04:05:58;1.95;;;0.90;;
27428;SDS011;14881;48.092;11.574;2023-05-10T04:08:26;1.98;;;1.00;;
27428;SDS011;14881;48.092;11.574;2023-05-10T04:10:52;0.70;;;0.70;;
27428;SDS011;14881;48.092;11.574;2023-05-10T04:13:18;0.98;;;0.80;;
27428;SDS011;14881;48.092;11.574;2023-05-10T04:15:45;0.90;;;0.90;;
27428;SDS011;14881;48.092;11.574;2023-05-10T04:18:11;0.82;;;0.82;;
27428;SDS011;14881;48.092;11.574;2023-05-10T04:20:38;0.90;;;0.90;;
27428;SDS011;14881;48.092;11.574;2023-05-10T04:23:04;1.30;;;0.85;;
27428;SDS011;14881;48.092;11.574;2023-05-10T04:25:33;1.00;;;1.00;;
27428;SDS011;14881;48.092;11.574;2023-05-10T04:27:59;1.25;;;0.90;;
27428;SDS011;14881;48.092;11.574;2023-05-10T04:30:28;1.02;;;0.95;;
27428;SDS011;14881;48.092;11.574;2023-05-10T04:32:54;3.03;;;0.95;;
27428;SDS011;14881;48.092;11.574;2023-05-10T04:35:21;1.05;;;0.95;;
27428;SDS011;14881;48.092;11.574;2023-05-10T04:37:48;1.08;;;1.02;;
27428;SDS011;14881;48.092;11.574;2023-05-10T04:40:14;1.35;;;0.95;;
27428;SDS011;14881;48.092;11.574;2023-05-10T04:42:41;2.30;;;0.82;;
27428;SDS011;14881;48.092;11.574;2023-05-10T04:45:07;2.67;;;1.10;;
27428;SDS011;14881;48.092;11.574;2023-05-10T04:47:35;1.30;;;0.90;;
27428;SDS011;14881;48.092;11.574;2023-05-10T04:50:02;0.82;;;0.80;;
27428;SDS011;14881;48.092;11.574;2023-05-10T04:52:29;0.65;;;0.65;;
27428;SDS011;14881;48.092;11.574;2023-05-10T04:54:56;0.90;;;0.90;;
27428;SDS011;14881;48.092;11.574;2023-05-10T04:57:22;2.65;;;0.95;;
27428;SDS011;14881;48.092;11.574;2023-05-10T04:59:49;1.42;;;0.80;;
27428;SDS011;14881;48.092;11.574;2023-05-10T05:02:15;0.70;;;0.70;;
27428;SDS011;14881;48.092;11.574;2023-05-10T05:04:42;0.80;;;0.80;;
27428;SDS011;14881;48.092;11.574;2023-05-10T05:07:08;0.80;;;0.80;;
27428;SDS011;14881;48.092;11.574;2023-05-10T05:09:36;1.00;;;0.90;;
27428;SDS011;14881;48.092;11.574;2023-05-10T05:12:03;1.38;;;0.80;;
27428;SDS011;14881;48.092;11.574;2023-05-10T05:14:30;5.38;;;1.20;;
27428;SDS011;14881;48.092;11.574;2023-05-10T05:16:56;4.40;;;0.80;;
27428;SDS011;14881;48.092;11.574;2023-05-10T05:19:23;1.17;;;1.00;;
27428;SDS011;14881;48.092;11.574;2023-05-10T05:21:49;1.10;;;1.00;;
27428;SDS011;14881;48.092;11.574;2023-05-10T05:24:15;1.13;;;1.08;;
27428;SDS011;14881;48.092;11.574;2023-05-10T05:26:42;1.30;;;0.88;;
27428;SDS011;14881;48.092;11.574;2023-05-10T05:29:09;1.50;;;1.23;;
27428;SDS011;14881;48.092;11.574;2023-05-10T05:31:35;1.98;;;1.13;;
27428;SDS011;14881;48.092;11.574;2023-05-10T05:34:01;1.10;;;1.00;;
27428;SDS011;14881;48.092;11.574;2023-05-10T05:36:28;0.98;;;0.90;;
27428;SDS011;14881;48.092;11.574;2023-05-10T05:38:54;1.30;;;1.05;;
27428;SDS011;14881;48.092;11.574;2023-05-10T05:41:20;1.90;;;0.95;;
27428;SDS011;14881;48.092;11.574;2023-05-10T05:43:47;3.35;;;0.80;;
27428;SDS011;14881;48.092;11.574;2023-05-10T05:46:14;1.88;;;0.93;;
27428;SDS011;14881;48.092;11.574;2023-05-10T05:48:40;3.40;;;0.93;;
27428;SDS011;14881;48.092;11.574;2023-05-10T05:51:10;1.42;;;0.80;;
27428;SDS011;14881;48.092;11.574;2023-05-10T05:53:36;0.95;;;0.95;;
27428;SDS011;14881;48.092;11.574;2023-05-10T05:56:03;0.80;;;0.80;;
27428;SDS011;14881;48.092;11.574;2023-05-10T05:58:30;4.28;;;1.30;;
27428;SDS011;14881;48.092;11.574;2023-05-10T06:00:56;1.77;;;1.42;;
27428;SDS011;14881;48.092;11.574;2023-05-10T06:03:23;1.92;;;1.40;;
27428;SDS011;14881;48.092;11.574;2023-05-10T06:05:50;1.48;;;1.23;;
27428;SDS011;14881;48.092;11.574;2023-05-10T06:08:16;2.45;;;1.30;;
27428;SDS011;14881;48.092;11.574;2023-05-10T06:10:42;1.40;;;1.30;;
27428;SDS011;14881;48.092;11.574;2023-05-10T06:13:09;5.07;;;1.35;;
27428;SDS011;14881;48.092;11.574;2023-05-10T06:15:36;1.60;;;1.50;;
27428;SDS011;14881;48.092;11.574;2023-05-10T06:18:02;1.45;;;1.13;;
27428;SDS011;14881;48.092;11.574;2023-05-10T06:20:30;1.60;;;1.42;;
27428;SDS011;14881;48.092;11.574;2023-05-10T06:22:57;3.33;;;1.55;;
27428;SDS011;14881;48.092;11.574;2023-05-10T06:25:23;3.72;;;1.50;;
27428;SDS011;14881;48.092;11.574;2023-05-10T06:27:50;2.05;;;1.83;;
27428;SDS011;14881;48.092;11.574;2023-05-10T06:30:20;2.58;;;1.50;;
27428;SDS011;14881;48.092;11.574;2023-05-10T06:32:52;2.45;;;1.67;;
27428;SDS011;14881;48.092;11.574;2023-05-10T06:35:19;3.05;;;1.50;;
27428;SDS011;14881;48.092;11.574;2023-05-10T06:37:46;1.75;;;1.48;;
27428;SDS011;14881;48.092;11.574;2023-05-10T06:40:13;1.40;;;1.30;;
27428;SDS011;14881;48.092;11.574;2023-05-10T06:42:39;2.30;;;1.48;;
27428;SDS011;14881;48.092;11.574;2023-05-10T06:45:06;1.50;;;1.40;;
27428;SDS011;14881;48.092;11.574;2023-05-10T06:47:34;2.20;;;1.63;;
27428;SDS011;14881;48.092;11.574;2023-05-10T06:50:04;4.82;;;1.30;;
27428;SDS011;14881;48.092;11.574;2023-05-10T06:52:31;1.50;;;1.40;;
27428;SDS011;14881;48.092;11.574;2023-05-10T06:54:58;2.10;;;1.88;;
27428;SDS011;14881;48.092;11.574;2023-05-10T06:57:24;2.65;;;1.80;;
27428;SDS011;14881;48.092;11.574;2023-05-10T06:59:55;3.05;;;1.67;;
27428;SDS011;14881;48.092;11.574;2023-05-10T07:02:22;2.47;;;1.90;;
27428;SDS011;14881;48.092;11.574;2023-05-10T07:04:48;2.75;;;2.00;;
27428;SDS011;14881;48.092;11.574;2023-05-10T07:07:15;2.33;;;1.83;;
27428;SDS011;14881;48.092;11.574;2023-05-10T07:09:41;1.60;;;1.50;;
27428;SDS011;14881;48.092;11.574;2023-05-10T07:12:08;2.72;;;1.70;;
27428;SDS011;14881;48.092;11.574;2023-05-10T07:14:38;2.00;;;1.80;;
27428;SDS011;14881;48.092;11.574;2023-05-10T07:17:05;1.95;;;1.60;;
27428;SDS011;14881;48.092;11.574;2023-05-10T07:19:31;2.20;;;1.58;;
27428;SDS011;14881;48.092;11.574;2023-05-10T07:21:58;4.97;;;1.90;;
27428;SDS011;14881;48.092;11.574;2023-05-10T07:24:24;1.73;;;1.55;;
27428;SDS011;14881;48.092;11.574;2023-05-10T07:26:51;3.80;;;1.60;;
27428;SDS011;14881;48.092;11.574;2023-05-10T07:29:18;1.60;;;1.50;;
27428;SDS011;14881;48.092;11.574;2023-05-10T07:31:44;2.60;;;1.50;;
27428;SDS011;14881;48.092;11.574;2023-05-10T07:34:10;1.92;;;1.73;;
27428;SDS011;14881;48.092;11.574;2023-05-10T07:36:37;1.95;;;1.63;;
27428;SDS011;14881;48.092;11.574;2023-05-10T07:39:03;1.63;;;1.50;;
27428;SDS011;14881;48.092;11.574;2023-05-10T07:41:30;2.55;;;1.83;;
27428;SDS011;14881;48.092;11.574;2023-05-10T07:43:56;2.22;;;1.70;;
27428;SDS011;14881;48.092;11.574;2023-05-10T07:46:23;2.45;;;1.60;;
27428;SDS011;14881;48.092;11.574;2023-05-10T07:48:50;2.22;;;1.50;;
27428;SDS011;14881;48.092;11.574;2023-05-10T07:51:16;1.70;;;1.60;;
27428;SDS011;14881;48.092;11.574;2023-05-10T07:53:42;4.47;;;1.80;;
27428;SDS011;14881;48.092;11.574;2023-05-10T07:56:22;1.40;;;1.30;;
27428;SDS011;14881;48.092;11.574;2023-05-10T07:58:50;1.77;;;1.25;;
27428;SDS011;14881;48.092;11.574;2023-05-10T08:01:17;1.80;;;1.50;;
27428;SDS011;14881;48.092;11.574;2023-05-10T08:03:44;3.00;;;1.38;;
27428;SDS011;14881;48.092;11.574;2023-05-10T08:06:11;2.63;;;1.20;;
27428;SDS011;14881;48.092;11.574;2023-05-10T08:08:37;1.35;;;1.25;;
27428;SDS011;14881;48.092;11.574;2023-05-10T08:11:04;1.30;;;1.20;;
27428;SDS011;14881;48.092;11.574;2023-05-10T08:13:30;2.50;;;1.20;;
27428;SDS011;14881;48.092;11.574;2023-05-10T08:15:57;1.92;;;1.70;;
27428;SDS011;14881;48.092;11.574;2023-05-10T08:18:23;3.03;;;2.00;;
27428;SDS011;14881;48.092;11.574;2023-05-10T08:20:51;1.88;;;1.63;;
27428;SDS011;14881;48.092;11.574;2023-05-10T08:23:17;3.50;;;1.50;;
27428;SDS011;14881;48.092;11.574;2023-05-10T08:25:43;1.63;;;1.52;;
27428;SDS011;14881;48.092;11.574;2023-05-10T08:28:09;2.08;;;1.35;;
27428;SDS011;14881;48.092;11.574;2023-05-10T08:30:37;1.73;;;1.30;;
27428;SDS011;14881;48.092;11.574;2023-05-10T08:33:03;2.90;;;1.40;;
27428;SDS011;14881;48.092;11.574;2023-05-10T08:35:29;1.42;;;1.33;;
27428;SDS011;14881;48.092;11.574;2023-05-10T08:37:57;2.15;;;1.33;;
27428;SDS011;14881;48.092;11.574;2023-05-10T08:40:23;1.65;;;1.27;;
27428;SDS011;14881;48.092;11.574;2023-05-10T08:42:54;1.40;;;1.30;;
27428;SDS011;14881;48.092;11.574;2023-05-10T08:45:24;1.42;;;1.30;;
27428;SDS011;14881;48.092;11.574;2023-05-10T08:47:53;1.02;;;1.00;;
27428;SDS011;14881;48.092;11.574;2023-05-10T08:50:20;1.20;;;1.10;;
27428;SDS011;14881;48.092;11.574;2023-05-10T08:52:47;3.50;;;1.50;;
27428;SDS011;14881;48.092;11.574;2023-05-10T08:55:17;2.78;;;1.38;;
27428;SDS011;14881;48.092;11.574;2023-05-10T08:57:44;4.80;;;1.60;;
27428;SDS011;14881;48.092;11.574;2023-05-10T09:00:11;6.13;;;1.58;;
27428;SDS011;14881;48.092;11.574;2023-05-10T09:02:39;2.22;;;1.30;;
27428;SDS011;14881;48.092;11.574;2023-05-10T09:05:07;2.22;;;1.60;;
27428;SDS011;14881;48.092;11.574;2023-05-10T09:07:36;1.38;;;1.25;;
27428;SDS011;14881;48.092;11.574;2023-05-10T09:10:02;2.50;;;1.50;;
27428;SDS011;14881;48.092;11.574;2023-05-10T09:12:31;2.10;;;1.83;;
27428;SDS011;14881;48.092;11.574;2023-05-10T09:14:57;4.72;;;1.48;;
27428;SDS011;14881;48.092;11.574;2023-05-10T09:17:26;2.35;;;1.45;;
27428;SDS011;14881;48.092;11.574;2023-05-10T09:19:57;1.50;;;1.40;;
27428;SDS011;14881;48.092;11.574;2023-05-10T09:22:24;2.28;;;1.50;;
27428;SDS011;14881;48.092;11.574;2023-05-10T09:25:02;1.88;;;1.45;;
27428;SDS011;14881;48.092;11.574;2023-05-10T09:27:29;2.95;;;1.50;;
27428;SDS011;14881;48.092;11.574;2023-05-10T09:29:56;1.50;;;1.40;;
27428;SDS011;14881;48.092;11.574;2023-05-10T09:32:25;0.95;;;0.95;;
27428;SDS011;14881;48.092;11.574;2023-05-10T09:35:05;1.02;;;1.02;;
27428;SDS011;14881;48.092;11.574;2023-05-10T09:37:35;2.17;;;1.00;;
27428;SDS011;14881;48.092;11.574;2023-05-10T09:40:04;1.73;;;1.20;;
27428;SDS011;14881;48.092;11.574;2023-05-10T09:42:33;3.15;;;1.13;;
27428;SDS011;14881;48.092;11.574;2023-05-10T09:45:01;1.83;;;1.02;;
27428;SDS011;14881;48.092;11.574;2023-05-10T09:47:29;1.10;;;1.00;;
27428;SDS011;14881;48.092;11.574;2023-05-10T09:49:57;1.73;;;1.08;;
27428;SDS011;14881;48.092;11.574;2023-05-10T09:52:28;3.17;;;1.20;;
27428;SDS011;14881;48.092;11.574;2023-05-10T09:54:55;1.65;;;0.98;;
27428;SDS011;14881;48.092;11.574;2023-05-10T09:57:22;4.90;;;0.90;;
27428;SDS011;14881;48.092;11.574;2023-05-10T09:59:50;1.00;;;0.90;;
27428;SDS011;14881;48.092;11.574;2023-05-10T10:02:17;1.10;;;0.85;;
27428;SDS011;14881;48.092;11.574;2023-05-10T10:04:44;2.25;;;1.08;;
27428;SDS011;14881;48.092;11.574;2023-05-10T10:07:10;1.45;;;1.02;;
27428;SDS011;14881;48.092;11.574;2023-05-10T10:09:37;2.83;;;0.90;;
27428;SDS011;14881;48.092;11.574;2023-05-10T10:12:04;2.40;;;1.00;;
27428;SDS011;14881;48.092;11.574;2023-05-10T10:14:31;3.45;;;1.05;;
27428;SDS011;14881;48.092;11.574;2023-05-10T10:16:59;2.15;;;1.20;;
27428;SDS011;14881;48.092;11.574;2023-05-10T10:19:34;6.32;;;1.00;;
27428;SDS011;14881;48.092;11.574;2023-05-10T10:22:01;2.35;;;1.00;;
27428;SDS011;14881;48.092;11.574;2023-05-10T10:24:27;2.55;;;1.10;;
27428;SDS011;14881;48.092;11.574;2023-05-10T10:26:55;2.60;;;1.13;;
27428;SDS011;14881;48.092;11.574;2023-05-10T10:29:31;2.03;;;1.08;;
27428;SDS011;14881;48.092;11.574;2023-05-10T10:32:05;3.33;;;1.08;;
27428;SDS011;14881;48.092;11.574;2023-05-10T10:34:39;2.30;;;1.10;;
27428;SDS011;14881;48.092;11.574;2023-05-10T10:37:06;1.90;;;0.85;;
27428;SDS011;14881;48.092;11.574;2023-05-10T10:39:32;0.65;;;0.65;;
27428;SDS011;14881;48.092;11.574;2023-05-10T10:42:02;1.83;;;0.73;;
27428;SDS011;14881;48.092;11.574;2023-05-10T10:44:37;1.75;;;0.80;;
27428;SDS011;14881;48.092;11.574;2023-05-10T10:47:07;2.72;;;1.00;;
27428;SDS011;14881;48.092;11.574;2023-05-10T10:49:51;2.08;;;0.80;;
27428;SDS011;14881;48.092;11.574;2023-05-10T10:52:28;2.35;;;1.00;;
27428;SDS011;14881;48.092;11.574;2023-05-10T10:54:59;2.15;;;0.85;;
27428;SDS011;14881;48.092;11.574;2023-05-10T10:57:28;4.05;;;1.10;;
27428;SDS011;14881;48.092;11.574;2023-05-10T11:02:51;3.17;;;1.13;;
27428;SDS011;14881;48.092;11.574;2023-05-10T11:05:33;3.55;;;1.00;;
27428;SDS011;14881;48.092;11.574;2023-05-10T11:08:06;2.70;;;1.20;;
27428;SDS011;14881;48.092;11.574;2023-05-10T11:10:34;3.08;;;1.83;;
27428;SDS011;14881;48.092;11.574;2023-05-10T11:13:01;2.55;;;2.10;;
27428;SDS011;14881;48.092;11.574;2023-05-10T11:15:29;2.80;;;1.77;;
27428;SDS011;14881;48.092;11.574;2023-05-10T11:17:56;4.43;;;1.98;;
27428;SDS011;14881;48.092;11.574;2023-05-10T11:20:23;3.58;;;2.38;;
27428;SDS011;14881;48.092;11.574;2023-05-10T11:23:10;4.00;;;1.80;;
27428;SDS011;14881;48.092;11.574;2023-05-10T11:25:41;3.55;;;1.60;;
27428;SDS011;14881;48.092;11.574;2023-05-10T11:28:08;3.35;;;1.80;;
27428;SDS011;14881;48.092;11.574;2023-05-10T11:30:35;5.13;;;2.00;;
27428;SDS011;14881;48.092;11.574;2023-05-10T11:33:02;2.78;;;1.40;;
27428;SDS011;14881;48.092;11.574;2023-05-10T11:35:28;1.83;;;1.55;;
27428;SDS011;14881;48.092;11.574;2023-05-10T11:37:55;2.17;;;1.52;;
27428;SDS011;14881;48.092;11.574;2023-05-10T11:40:22;3.25;;;2.00;;
27428;SDS011;14881;48.092;11.574;2023-05-10T11:42:50;6.38;;;2.63;;
27428;SDS011;14881;48.092;11.574;2023-05-10T11:45:23;5.78;;;3.03;;
27428;SDS011;14881;48.092;11.574;2023-05-10T11:47:49;8.68;;;3.97;;
27428;SDS011;14881;48.092;11.574;2023-05-10T11:50:16;8.48;;;4.18;;
27428;SDS011;14881;48.092;11.574;2023-05-10T11:52:44;14.82;;;4.30;;
27428;SDS011;14881;48.092;11.574;2023-05-10T11:55:10;5.45;;;3.97;;
27428;SDS011;14881;48.092;11.574;2023-05-10T11:57:38;9.48;;;4.07;;
27428;SDS011;14881;48.092;11.574;2023-05-10T12:00:07;7.40;;;3.85;;
27428;SDS011;14881;48.092;11.574;2023-05-10T12:02:34;7.40;;;4.28;;
27428;SDS011;14881;48.092;11.574;2023-05-10T12:05:01;4.15;;;2.70;;
27428;SDS011;14881;48.092;11.574;2023-05-10T12:07:31;4.60;;;3.00;;
27428;SDS011;14881;48.092;11.574;2023-05-10T12:10:04;6.80;;;2.53;;
27428;SDS011;14881;48.092;11.574;2023-05-10T12:12:37;4.82;;;1.80;;
27428;SDS011;14881;48.092;11.574;2023-05-10T12:15:05;2.63;;;2.05;;
27428;SDS011;14881;48.092;11.574;2023-05-10T12:17:36;5.53;;;2.17;;
27428;SDS011;14881;48.092;11.574;2023-05-10T12:20:13;3.17;;;1.90;;
27428;SDS011;14881;48.092;11.574;2023-05-10T12:22:43;3.55;;;2.38;;
27428;SDS011;14881;48.092;11.574;2023-05-10T12:25:10;8.43;;;2.80;;
27428;SDS011;14881;48.092;11.574;2023-05-10T12:27:36;5.95;;;2.92;;
27428;SDS011;14881;48.092;11.574;2023-05-10T12:30:03;7.28;;;2.45;;
27428;SDS011;14881;48.092;11.574;2023-05-10T12:32:40;4.40;;;2.85;;
27428;SDS011;14881;48.092;11.574;2023-05-10T12:35:07;2.42;;;2.20;;
27428;SDS011;14881;48.092;11.574;2023-05-10T12:37:34;5.18;;;2.30;;
27428;SDS011;14881;48.092;11.574;2023-05-10T12:40:08;2.92;;;1.95;;
27428;SDS011;14881;48.092;11.574;2023-05-10T12:42:36;2.05;;;1.85;;
27428;SDS011;14881;48.092;11.574;2023-05-10T12:45:04;6.20;;;2.22;;
27428;SDS011;14881;48.092;11.574;2023-05-10T12:47:31;2.72;;;1.98;;
27428;SDS011;14881;48.092;11.574;2023-05-10T12:49:59;3.13;;;2.72;;
27428;SDS011;14881;48.092;11.574;2023-05-10T12:52:26;2.20;;;2.00;;
27428;SDS011;14881;48.092;11.574;2023-05-10T12:54:53;2.28;;;2.08;;
27428;SDS011;14881;48.092;11.574;2023-05-10T12:57:19;4.90;;;2.40;;
27428;SDS011;14881;48.092;11.574;2023-05-10T12:59:46;3.00;;;2.33;;
27428;SDS011;14881;48.092;11.574;2023-05-10T13:02:13;3.65;;;2.22;;
27428;SDS011;14881;48.092;11.574;2023-05-10T13:04:40;4.57;;;2.45;;
27428;SDS011;14881;48.092;11.574;2023-05-10T13:07:08;4.22;;;2.70;;
27428;SDS011;14881;48.092;11.574;2023-05-10T13:09:34;2.85;;;2.30;;
27428;SDS011;14881;48.092;11.574;2023-05-10T13:12:01;2.33;;;2.13;;
27428;SDS011;14881;48.092;11.574;2023-05-10T13:14:28;5.25;;;2.80;;
27428;SDS011;14881;48.092;11.574;2023-05-10T13:16:55;3.60;;;2.42;;
27428;SDS011;14881;48.092;11.574;2023-05-10T13:19:21;5.93;;;3.30;;
27428;SDS011;14881;48.092;11.574;2023-05-10T13:21:48;7.20;;;5.10;;
27428;SDS011;14881;48.092;11.574;2023-05-10T13:24:15;4.38;;;2.95;;
27428;SDS011;14881;48.092;11.574;2023-05-10T13:26:42;2.92;;;2.45;;
27428;SDS011;14881;48.092;11.574;2023-05-10T13:29:09;3.13;;;2.53;;
27428;SDS011;14881;48.092;11.574;2023-05-10T13:31:35;5.13;;;3.03;;
27428;SDS011;14881;48.092;11.574;2023-05-10T13:34:02;3.97;;;2.65;;
27428;SDS011;14881;48.092;11.574;2023-05-10T13:36:28;3.10;;;2.67;;
27428;SDS011;14881;48.092;11.574;2023-05-10T13:38:54;4.03;;;2.30;;
27428;SDS011;14881;48.092;11.574;2023-05-10T13:41:22;4.75;;;2.67;;
27428;SDS011;14881;48.092;11.574;2023-05-10T13:43:48;2.38;;;2.17;;
27428;SDS011;14881;48.092;11.574;2023-05-10T13:46:14;2.85;;;2.13;;
27428;SDS011;14881;48.092;11.574;2023-05-10T13:48:41;4.35;;;2.15;;
27428;SDS011;14881;48.092;11.574;2023-05-10T13:51:07;3.75;;;1.90;;
27428;SDS011;14881;48.092;11.574;2023-05-10T13:53:33;5.05;;;1.95;;
27428;SDS011;14881;48.092;11.574;2023-05-10T13:56:00;4.38;;;2.30;;
27428;SDS011;14881;48.092;11.574;2023-05-10T13:58:28;2.70;;;2.30;;
27428;SDS011;14881;48.092;11.574;2023-05-10T14:00:55;3.50;;;2.63;;
27428;SDS011;14881;48.092;11.574;2023-05-10T14:03:21;2.80;;;2.13;;
27428;SDS011;14881;48.092;11.574;2023-05-10T14:05:48;4.50;;;2.28;;
27428;SDS011;14881;48.092;11.574;2023-05-10T14:08:14;2.38;;;2.17;;
27428;SDS011;14881;48.092;11.574;2023-05-10T14:10:40;2.95;;;2.67;;
27428;SDS011;14881;48.092;11.574;2023-05-10T14:13:07;2.83;;;2.10;;
27428;SDS011;14881;48.092;11.574;2023-05-10T14:15:34;4.35;;;2.20;;
27428;SDS011;14881;48.092;11.574;2023-05-10T14:18:00;2.28;;;1.88;;
27428;SDS011;14881;48.092;11.574;2023-05-10T14:20:27;3.50;;;2.30;;
27428;SDS011;14881;48.092;11.574;2023-05-10T14:22:53;2.75;;;2.13;;
27428;SDS011;14881;48.092;11.574;2023-05-10T14:25:20;3.40;;;2.30;;
27428;SDS011;14881;48.092;11.574;2023-05-10T14:27:46;3.30;;;2.20;;
27428;SDS011;14881;48.092;11.574;2023-05-10T14:30:13;3.45;;;2.20;;
27428;SDS011;14881;48.092;11.574;2023-05-10T14:32:41;3.03;;;2.22;;
27428;SDS011;14881;48.092;11.574;2023-05-10T14:35:07;3.75;;;2.13;;
27428;SDS011;14881;48.092;11.574;2023-05-10T14:37:38;2.42;;;2.05;;
27428;SDS011;14881;48.092;11.574;2023-05-10T14:40:05;2.75;;;1.58;;
27428;SDS011;14881;48.092;11.574;2023-05-10T14:42:32;3.25;;;1.60;;